createdAt,value
2022-08-20T00:01:11.627Z,0.70
2022-08-20T00:03:41.379Z,0.52
2022-08-20T00:06:20.053Z,0.60
2022-08-20T00:08:47.040Z,0.90
2022-08-20T00:11:19.040Z,1.00
2022-08-20T00:13:49.775Z,1.45
2022-08-20T00:16:18.056Z,0.52
2022-08-20T00:18:45.623Z,0.82
2022-08-20T00:21:18.667Z,0.73
2022-08-20T00:23:50.426Z,0.70
2022-08-20T00:26:18.839Z,0.62
2022-08-20T00:28:46.603Z,0.73
2022-08-20T00:31:20.966Z,1.10
2022-08-20T00:33:48.659Z,0.50
2022-08-20T00:36:17.662Z,1.00
2022-08-20T00:38:46.563Z,1.20
2022-08-20T00:41:24.351Z,0.90
2022-08-20T00:44:05.229Z,0.70
2022-08-20T00:46:32.773Z,0.90
2022-08-20T00:49:02.512Z,0.80
2022-08-20T00:51:35.750Z,1.02
2022-08-20T00:54:10.475Z,0.80
2022-08-20T00:56:38.043Z,0.90
2022-08-20T00:59:11.645Z,0.82
2022-08-20T01:01:55.255Z,1.05
2022-08-20T01:04:26.407Z,0.52
2022-08-20T01:06:53.881Z,0.73
2022-08-20T01:09:50.311Z,0.90
2022-08-20T01:12:09.978Z,0.80
2022-08-20T01:14:46.690Z,0.80
2022-08-20T01:17:22.309Z,0.50
2022-08-20T01:19:54.946Z,0.75
2022-08-20T01:22:54.596Z,0.70
2022-08-20T01:25:32.935Z,0.70
2022-08-20T01:28:00.446Z,0.70
2022-08-20T01:30:29.502Z,0.60
2022-08-20T01:32:56.724Z,0.70
2022-08-20T01:35:24.852Z,0.65
2022-08-20T01:37:52.264Z,0.88
2022-08-20T01:40:38.775Z,0.50
2022-08-20T01:43:06.729Z,0.80
2022-08-20T01:45:33.801Z,0.70
2022-08-20T01:48:01.150Z,0.75
2022-08-20T01:50:32.618Z,0.70
2022-08-20T01:53:24.524Z,0.70
2022-08-20T01:55:51.475Z,0.68
2022-08-20T01:58:18.492Z,0.82
2022-08-20T02:00:45.730Z,0.70
2022-08-20T02:03:12.702Z,0.85
2022-08-20T02:05:39.700Z,0.80
2022-08-20T02:08:06.647Z,1.08
2022-08-20T02:10:35.115Z,0.70
2022-08-20T02:13:02.598Z,0.57
2022-08-20T02:15:34.626Z,0.85
2022-08-20T02:18:08.154Z,0.93
2022-08-20T02:20:36.370Z,0.60
2022-08-20T02:23:05.706Z,0.70
2022-08-20T02:25:36.027Z,0.77
2022-08-20T02:28:06.771Z,0.95
2022-08-20T02:30:38.799Z,0.88
2022-08-20T02:33:09.474Z,0.62
2022-08-20T02:35:38.784Z,1.25
2022-08-20T02:38:06.412Z,0.60
2022-08-20T02:40:33.865Z,0.73
2022-08-20T02:43:02.503Z,0.77
2022-08-20T02:45:44.122Z,0.80
2022-08-20T02:48:21.314Z,0.75
2022-08-20T02:50:56.767Z,0.80
2022-08-20T02:53:29.474Z,1.27
2022-08-20T02:55:57.543Z,0.80
2022-08-20T02:58:24.763Z,0.70
2022-08-20T03:00:52.354Z,0.90
2022-08-20T03:03:22.646Z,1.08
2022-08-20T03:05:52.158Z,1.25
2022-08-20T03:08:19.512Z,0.88
2022-08-20T03:10:47.730Z,0.90
2022-08-20T03:13:15.612Z,1.85
2022-08-20T03:15:48.572Z,0.70
2022-08-20T03:18:17.410Z,1.30
2022-08-20T03:20:45.957Z,1.50
2022-08-20T03:23:15.912Z,0.95
2022-08-20T03:25:42.918Z,0.90
2022-08-20T03:28:10.367Z,1.05
2022-08-20T03:30:37.655Z,1.00
2022-08-20T03:33:04.642Z,1.02
2022-08-20T03:35:34.800Z,0.90
2022-08-20T03:38:02.058Z,1.17
2022-08-20T03:40:32.730Z,1.20
2022-08-20T03:43:00.403Z,1.27
2022-08-20T03:45:29.993Z,1.37
2022-08-20T03:47:58.078Z,1.08
2022-08-20T03:50:28.416Z,1.17
2022-08-20T03:52:55.963Z,1.37
2022-08-20T03:55:24.701Z,0.90
2022-08-20T03:57:56.266Z,0.77
2022-08-20T04:00:28.845Z,1.20
2022-08-20T04:02:57.315Z,1.25
2022-08-20T04:05:25.510Z,1.30
2022-08-20T04:07:56.539Z,1.65
2022-08-20T04:10:30.142Z,0.75
2022-08-20T04:12:57.046Z,1.62
2022-08-20T04:15:24.845Z,1.90
2022-08-20T04:17:53.603Z,1.40
2022-08-20T04:20:26.058Z,1.75
2022-08-20T04:22:58.691Z,1.87
2022-08-20T04:25:29.599Z,1.50
2022-08-20T04:27:58.781Z,1.40
2022-08-20T04:30:27.480Z,1.30
2022-08-20T04:32:56.189Z,1.45
2022-08-20T04:35:24.720Z,1.23
2022-08-20T04:38:02.924Z,1.95
2022-08-20T04:40:49.300Z,1.80
2022-08-20T04:43:16.335Z,1.65
2022-08-20T04:45:43.698Z,1.73
2022-08-20T04:48:14.891Z,1.67
2022-08-20T04:50:44.991Z,1.30
2022-08-20T04:53:14.466Z,1.60
2022-08-20T04:55:43.037Z,1.23
2022-08-20T04:58:16.894Z,1.30
2022-08-20T05:00:48.078Z,1.55
2022-08-20T05:03:16.259Z,1.27
2022-08-20T05:05:45.111Z,1.60
2022-08-20T05:08:20.020Z,1.75
2022-08-20T05:10:47.407Z,1.40
2022-08-20T05:13:14.363Z,2.10
2022-08-20T05:15:41.518Z,2.12
2022-08-20T05:18:09.299Z,1.45
2022-08-20T05:20:38.962Z,1.80
2022-08-20T05:23:07.551Z,2.08
2022-08-20T05:25:34.917Z,2.58
2022-08-20T05:28:12.756Z,1.62
2022-08-20T05:30:43.424Z,2.37
2022-08-20T05:33:11.524Z,1.95
2022-08-20T05:35:40.022Z,2.28
2022-08-20T05:38:09.243Z,1.87
2022-08-20T05:40:36.203Z,2.03
2022-08-20T05:43:04.849Z,2.37
2022-08-20T05:45:33.839Z,2.08
2022-08-20T05:48:30.138Z,1.98
2022-08-20T05:50:57.883Z,2.10
2022-08-20T05:53:25.617Z,2.40
2022-08-20T05:55:53.516Z,2.10
2022-08-20T05:58:24.467Z,2.58
2022-08-20T06:00:53.040Z,2.60
2022-08-20T06:03:39.288Z,2.37
2022-08-20T06:06:18.423Z,2.55
2022-08-20T06:08:53.881Z,3.62
2022-08-20T06:11:20.779Z,2.67
2022-08-20T06:13:47.888Z,2.58
2022-08-20T06:16:14.857Z,2.12
2022-08-20T06:18:41.919Z,2.28
2022-08-20T06:21:09.610Z,2.20
2022-08-20T06:23:56.738Z,2.20
2022-08-20T06:26:24.325Z,2.47
2022-08-20T06:29:01.114Z,2.45
2022-08-20T06:31:28.043Z,2.60
2022-08-20T06:33:55.352Z,2.47
2022-08-20T06:36:22.603Z,2.55
2022-08-20T06:38:49.561Z,2.78
2022-08-20T06:41:17.349Z,2.85
2022-08-20T06:43:44.368Z,3.03
2022-08-20T06:46:11.340Z,2.55
2022-08-20T06:48:38.396Z,2.30
2022-08-20T06:51:06.869Z,2.70
2022-08-20T06:53:34.061Z,1.90
2022-08-20T06:56:01.186Z,2.90
2022-08-20T06:58:36.822Z,2.75
2022-08-20T07:01:10.125Z,1.75
2022-08-20T07:03:39.482Z,1.80
2022-08-20T07:06:09.573Z,2.10
2022-08-20T07:08:36.560Z,1.75
2022-08-20T07:11:03.814Z,1.80
2022-08-20T07:13:30.869Z,2.22
2022-08-20T07:15:57.860Z,1.90
2022-08-20T07:18:27.890Z,2.20
2022-08-20T07:20:57.381Z,1.80
2022-08-20T07:23:25.362Z,1.92
2022-08-20T07:25:53.909Z,2.17
2022-08-20T07:28:23.435Z,1.85
2022-08-20T07:31:12.199Z,2.10
2022-08-20T07:33:41.556Z,1.90
2022-08-20T07:36:09.297Z,1.75
2022-08-20T07:38:37.216Z,2.10
2022-08-20T07:41:07.645Z,1.87
2022-08-20T07:43:34.796Z,1.45
2022-08-20T07:46:09.438Z,1.35
2022-08-20T07:48:41.436Z,1.58
2022-08-20T07:51:10.945Z,1.80
2022-08-20T07:53:39.886Z,1.73
2022-08-20T07:56:11.385Z,1.55
2022-08-20T07:58:50.703Z,1.42
2022-08-20T08:01:26.091Z,1.15
2022-08-20T08:03:53.702Z,1.10
2022-08-20T08:06:30.040Z,1.55
2022-08-20T08:09:10.113Z,1.27
2022-08-20T08:11:39.629Z,0.90
2022-08-20T08:14:11.634Z,1.23
2022-08-20T08:16:39.504Z,1.25
2022-08-20T08:19:12.040Z,1.50
2022-08-20T08:21:39.191Z,0.98
2022-08-20T08:24:06.150Z,1.30
2022-08-20T08:26:33.199Z,0.95
2022-08-20T08:29:00.098Z,1.00
2022-08-20T08:31:27.416Z,1.02
2022-08-20T08:33:54.502Z,1.20
2022-08-20T08:36:21.488Z,0.80
2022-08-20T08:38:48.468Z,1.35
2022-08-20T08:41:30.392Z,1.35
2022-08-20T08:44:12.285Z,1.10
2022-08-20T08:46:43.699Z,1.08
2022-08-20T08:49:16.688Z,0.90
2022-08-20T08:51:48.817Z,0.93
2022-08-20T08:54:22.149Z,0.90
2022-08-20T08:56:50.134Z,1.33
2022-08-20T08:59:19.189Z,0.90
2022-08-20T09:01:57.113Z,0.90
2022-08-20T09:04:35.365Z,0.70
2022-08-20T09:07:05.251Z,0.90
2022-08-20T09:09:37.898Z,0.52
2022-08-20T09:12:07.941Z,0.88
2022-08-20T09:14:35.940Z,0.95
2022-08-20T09:17:03.709Z,0.70
2022-08-20T09:19:31.162Z,0.50
2022-08-20T09:21:58.387Z,0.50
2022-08-20T09:24:25.740Z,0.40
2022-08-20T09:26:52.686Z,0.60
2022-08-20T09:29:19.608Z,0.52
2022-08-20T09:31:46.588Z,0.55
2022-08-20T09:34:13.833Z,0.30
2022-08-20T09:36:40.742Z,0.47
2022-08-20T09:39:07.794Z,0.50
2022-08-20T09:41:34.860Z,0.25
2022-08-20T09:44:02.296Z,0.35
2022-08-20T09:46:29.282Z,0.30
2022-08-20T09:48:56.298Z,0.30
2022-08-20T09:51:23.409Z,0.30
2022-08-20T09:53:50.668Z,0.40
2022-08-20T09:56:18.047Z,0.20
2022-08-20T09:58:54.325Z,0.37
2022-08-20T10:01:23.145Z,0.70
2022-08-20T10:03:51.007Z,0.70
2022-08-20T10:06:20.439Z,0.68
2022-08-20T10:08:49.300Z,0.68
2022-08-20T10:11:17.868Z,0.95
2022-08-20T10:13:45.570Z,1.17
2022-08-20T10:16:12.664Z,0.90
2022-08-20T10:18:39.784Z,1.42
2022-08-20T10:21:13.044Z,1.35
2022-08-20T10:23:39.976Z,1.40
2022-08-20T10:26:13.658Z,1.10
2022-08-20T10:28:40.580Z,1.12
2022-08-20T10:31:10.154Z,1.48
2022-08-20T10:33:37.818Z,1.20
2022-08-20T10:36:13.508Z,1.37
2022-08-20T10:38:40.557Z,1.20
2022-08-20T10:41:07.849Z,1.12
2022-08-20T10:43:35.019Z,1.33
2022-08-20T10:46:02.065Z,1.12
2022-08-20T10:48:30.181Z,1.40
2022-08-20T10:50:57.156Z,1.45
2022-08-20T10:53:24.264Z,0.90
2022-08-20T10:55:52.690Z,0.85
2022-08-20T10:58:20.254Z,0.85
2022-08-20T11:00:51.486Z,1.40
2022-08-20T11:03:19.009Z,1.00
2022-08-20T11:05:46.700Z,1.02
2022-08-20T11:08:13.761Z,0.90
2022-08-20T11:10:41.190Z,1.52
2022-08-20T11:13:08.801Z,0.80
2022-08-20T11:15:39.075Z,1.08
2022-08-20T11:18:06.257Z,0.93
2022-08-20T11:20:33.519Z,0.85
2022-08-20T11:23:00.723Z,0.80
2022-08-20T11:25:28.372Z,0.82
2022-08-20T11:27:56.859Z,0.80
2022-08-20T11:30:31.078Z,0.68
2022-08-20T11:32:59.474Z,1.12
2022-08-20T11:35:49.016Z,0.75
2022-08-20T11:38:16.351Z,1.10
2022-08-20T11:40:43.560Z,0.70
2022-08-20T11:43:14.772Z,0.60
2022-08-20T11:45:43.113Z,1.02
2022-08-20T11:48:10.036Z,0.80
2022-08-20T11:50:36.941Z,0.90
2022-08-20T11:53:03.940Z,0.77
2022-08-20T11:55:31.225Z,1.00
2022-08-20T11:57:59.947Z,1.00
2022-08-20T12:00:33.053Z,1.10
2022-08-20T12:03:05.736Z,0.82
2022-08-20T12:05:36.911Z,0.77
2022-08-20T12:08:04.321Z,0.70
2022-08-20T12:10:31.978Z,0.65
2022-08-20T12:12:59.279Z,0.90
2022-08-20T12:15:27.703Z,0.85
2022-08-20T12:17:55.495Z,1.00
2022-08-20T12:20:24.351Z,1.00
2022-08-20T12:22:51.540Z,1.05
2022-08-20T12:25:18.770Z,0.70
2022-08-20T12:27:46.196Z,0.82
2022-08-20T12:30:17.791Z,0.77
2022-08-20T12:32:44.876Z,0.88
2022-08-20T12:35:13.829Z,0.93
2022-08-20T12:37:41.914Z,0.70
2022-08-20T12:40:15.863Z,0.90
2022-08-20T12:42:42.965Z,0.70
2022-08-20T12:45:10.491Z,0.80
2022-08-20T12:47:40.707Z,0.57
2022-08-20T12:50:18.489Z,0.70
2022-08-20T12:52:45.976Z,0.40
2022-08-20T12:55:15.191Z,0.60
2022-08-20T12:57:52.512Z,0.70
2022-08-20T13:00:25.909Z,0.60
2022-08-20T13:02:55.058Z,0.62
2022-08-20T13:05:22.990Z,0.50
2022-08-20T13:07:50.033Z,0.60
2022-08-20T13:10:31.458Z,0.40
2022-08-20T13:12:59.429Z,0.70
2022-08-20T13:15:26.479Z,0.70
2022-08-20T13:17:55.166Z,0.43
2022-08-20T13:20:25.619Z,0.70
2022-08-20T13:22:58.233Z,0.52
2022-08-20T13:25:25.767Z,0.80
2022-08-20T13:28:02.426Z,0.60
2022-08-20T13:30:29.552Z,0.50
2022-08-20T13:32:56.633Z,0.50
2022-08-20T13:35:23.751Z,0.68
2022-08-20T13:37:50.732Z,0.50
2022-08-20T13:40:18.635Z,0.70
2022-08-20T13:42:45.774Z,0.70
2022-08-20T13:45:13.167Z,0.88
2022-08-20T13:47:41.562Z,0.52
2022-08-20T13:50:15.749Z,0.70
2022-08-20T13:52:43.502Z,0.70
2022-08-20T13:55:12.924Z,0.55
2022-08-20T13:57:40.966Z,0.70
2022-08-20T14:00:12.871Z,0.65
2022-08-20T14:02:42.005Z,0.70
2022-08-20T14:05:09.633Z,1.00
2022-08-20T14:07:38.096Z,0.60
2022-08-20T14:10:22.407Z,0.60
2022-08-20T14:12:49.423Z,0.40
2022-08-20T14:15:17.491Z,0.40
2022-08-20T14:17:51.735Z,0.40
2022-08-20T14:20:21.745Z,0.47
2022-08-20T14:22:48.733Z,0.30
2022-08-20T14:25:18.119Z,0.20
2022-08-20T14:27:45.670Z,0.35
2022-08-20T14:30:16.834Z,0.28
2022-08-20T14:32:43.891Z,0.25
2022-08-20T14:35:11.519Z,0.50
2022-08-20T14:37:41.262Z,0.20
2022-08-20T14:40:12.185Z,0.30
2022-08-20T14:42:40.148Z,0.25
2022-08-20T14:45:11.803Z,0.43
2022-08-20T14:47:53.612Z,0.30
2022-08-20T14:50:30.003Z,0.75
2022-08-20T14:52:58.096Z,0.50
2022-08-20T14:55:31.504Z,0.60
2022-08-20T14:57:58.782Z,0.65
2022-08-20T15:00:30.193Z,0.40
2022-08-20T15:02:58.030Z,0.30
2022-08-20T15:05:25.503Z,0.45
2022-08-20T15:07:54.204Z,0.50
2022-08-20T15:10:25.422Z,0.55
2022-08-20T15:12:52.573Z,0.30
2022-08-20T15:15:20.410Z,0.73
2022-08-20T15:17:50.477Z,0.65
2022-08-20T15:20:21.159Z,0.73
2022-08-20T15:22:49.319Z,0.70
2022-08-20T15:25:19.065Z,0.82
2022-08-20T15:27:46.184Z,1.17
2022-08-20T15:30:20.418Z,1.27
2022-08-20T15:32:51.376Z,0.80
2022-08-20T15:35:25.810Z,0.52
2022-08-20T15:37:56.299Z,0.95
2022-08-20T15:40:28.447Z,0.80
2022-08-20T15:42:57.901Z,1.00
2022-08-20T15:45:25.512Z,0.70
2022-08-20T15:48:15.263Z,0.90
2022-08-20T15:50:47.963Z,0.90
2022-08-20T15:53:39.059Z,0.60
2022-08-20T15:56:25.234Z,0.75
2022-08-20T15:59:45.509Z,0.90
2022-08-20T16:02:25.524Z,0.68
2022-08-20T16:05:01.602Z,1.33
2022-08-20T16:08:01.434Z,1.10
2022-08-20T16:10:32.155Z,1.02
2022-08-20T16:13:02.740Z,0.88
2022-08-20T16:15:33.369Z,0.80
2022-08-20T16:18:08.306Z,1.08
2022-08-20T16:20:39.546Z,0.77
2022-08-20T16:23:08.305Z,0.90
2022-08-20T16:25:58.250Z,0.82
2022-08-20T16:28:33.915Z,0.93
2022-08-20T16:31:07.803Z,0.73
2022-08-20T16:33:59.693Z,0.90
2022-08-20T16:36:26.641Z,0.82
2022-08-20T16:39:02.551Z,0.80
2022-08-20T16:41:40.004Z,0.82
2022-08-20T16:44:25.628Z,0.65
2022-08-20T16:47:17.160Z,0.80
2022-08-20T16:50:11.246Z,0.77
2022-08-20T16:52:43.456Z,0.95
2022-08-20T16:55:11.623Z,0.65
2022-08-20T16:57:38.875Z,1.12
2022-08-20T17:00:19.107Z,0.60
2022-08-20T17:03:10.483Z,0.90
2022-08-20T17:05:45.669Z,0.77
2022-08-20T17:08:35.114Z,0.75
2022-08-20T17:11:22.399Z,0.82
2022-08-20T17:13:50.140Z,0.90
2022-08-20T17:16:19.969Z,0.77
2022-08-20T17:18:52.363Z,0.90
2022-08-20T17:21:27.100Z,0.70
2022-08-20T17:24:01.236Z,0.90
2022-08-20T17:26:40.258Z,0.82
2022-08-20T17:29:21.269Z,0.80
2022-08-20T17:31:52.217Z,0.77
2022-08-20T17:34:19.109Z,0.80
2022-08-20T17:37:20.473Z,0.82
2022-08-20T17:39:51.889Z,1.00
2022-08-20T17:42:25.620Z,0.80
2022-08-20T17:45:08.158Z,1.00
2022-08-20T17:47:37.760Z,0.90
2022-08-20T17:50:15.309Z,0.75
2022-08-20T17:52:50.331Z,1.00
2022-08-20T17:55:18.337Z,0.90
2022-08-20T17:57:49.085Z,0.90
2022-08-20T18:00:28.028Z,0.73
2022-08-20T18:03:22.649Z,0.80
2022-08-20T18:06:08.076Z,1.08
2022-08-20T18:08:49.113Z,1.45
2022-08-20T18:11:45.664Z,1.00
2022-08-20T18:14:32.491Z,1.50
2022-08-20T18:17:52.458Z,1.12
2022-08-20T18:20:40.999Z,0.95
2022-08-20T18:23:10.782Z,1.00
2022-08-20T18:25:49.694Z,0.80
2022-08-20T18:28:24.547Z,0.62
2022-08-20T18:31:03.456Z,1.10
2022-08-20T18:33:36.543Z,1.33
2022-08-20T18:36:19.740Z,1.12
2022-08-20T18:39:23.199Z,0.80
2022-08-20T18:42:02.543Z,0.80
2022-08-20T18:44:35.477Z,1.10
2022-08-20T18:47:06.526Z,1.10
2022-08-20T18:49:38.614Z,1.30
2022-08-20T18:52:18.257Z,1.00
2022-08-20T18:54:54.655Z,0.80
2022-08-20T18:57:25.427Z,1.12
2022-08-20T19:00:18.414Z,0.68
2022-08-20T19:03:02.552Z,1.02
2022-08-20T19:05:36.930Z,0.90
2022-08-20T19:08:06.234Z,0.93
2022-08-20T19:11:07.263Z,0.73
2022-08-20T19:13:46.350Z,1.02
2022-08-20T19:16:34.171Z,0.85
2022-08-20T19:19:01.269Z,0.60
2022-08-20T19:21:35.794Z,0.85
2022-08-20T19:24:06.155Z,1.08
2022-08-20T19:26:41.989Z,0.60
2022-08-20T19:29:22.816Z,1.23
2022-08-20T19:31:49.797Z,1.25
2022-08-20T19:34:26.387Z,0.90
2022-08-20T19:37:15.033Z,1.05
2022-08-20T19:39:54.401Z,1.52
2022-08-20T19:42:29.538Z,1.12
2022-08-20T19:45:05.487Z,0.70
2022-08-20T19:47:37.051Z,1.62
2022-08-20T19:50:09.897Z,0.90
2022-08-20T19:52:45.966Z,0.90
2022-08-20T19:55:23.843Z,0.70
2022-08-20T19:57:53.516Z,1.12
2022-08-20T20:00:22.191Z,0.80
2022-08-20T20:02:49.167Z,1.00
2022-08-20T20:05:17.281Z,0.77
2022-08-20T20:07:50.614Z,0.80
2022-08-20T20:10:29.435Z,0.90
2022-08-20T20:13:06.682Z,1.50
2022-08-20T20:15:34.017Z,1.17
2022-08-20T20:18:01.110Z,0.93
2022-08-20T20:20:35.170Z,0.77
2022-08-20T20:23:21.190Z,0.88
2022-08-20T20:25:56.064Z,0.93
2022-08-20T20:28:28.650Z,0.90
2022-08-20T20:31:07.478Z,0.75
2022-08-20T20:33:43.956Z,0.80
2022-08-20T20:36:18.677Z,0.90
2022-08-20T20:39:00.496Z,1.17
2022-08-20T20:41:29.037Z,0.82
2022-08-20T20:44:03.967Z,1.08
2022-08-20T20:46:33.436Z,0.93
2022-08-20T20:49:09.367Z,0.93
2022-08-20T20:51:41.136Z,0.98
2022-08-20T20:54:42.669Z,1.00
2022-08-20T20:57:36.441Z,0.70
2022-08-20T21:00:11.601Z,0.88
2022-08-20T21:02:38.915Z,0.80
2022-08-20T21:05:06.863Z,1.02
2022-08-20T21:07:33.906Z,1.08
2022-08-20T21:10:01.031Z,0.50
2022-08-20T21:12:27.964Z,0.82
2022-08-20T21:14:54.933Z,0.60
2022-08-20T21:17:23.164Z,0.82
2022-08-20T21:19:51.775Z,0.90
2022-08-20T21:22:19.884Z,1.30
2022-08-20T21:24:51.281Z,0.60
2022-08-20T21:27:26.799Z,1.08
2022-08-20T21:29:54.708Z,1.00
2022-08-20T21:32:21.874Z,0.73
2022-08-20T21:34:50.086Z,0.70
2022-08-20T21:37:17.562Z,0.80
2022-08-20T21:39:44.934Z,0.93
2022-08-20T21:42:29.278Z,1.62
2022-08-20T21:44:58.029Z,0.80
2022-08-20T21:47:25.819Z,0.95
2022-08-20T21:49:52.796Z,1.10
2022-08-20T21:52:19.703Z,1.08
2022-08-20T21:54:46.678Z,0.90
2022-08-20T21:57:23.758Z,0.70
2022-08-20T21:59:50.908Z,0.60
2022-08-20T22:02:19.392Z,0.90
2022-08-20T22:04:46.296Z,1.05
2022-08-20T22:07:13.955Z,0.73
2022-08-20T22:09:40.860Z,1.00
2022-08-20T22:12:14.769Z,1.00
2022-08-20T22:14:42.051Z,0.60
2022-08-20T22:17:09.090Z,0.60
2022-08-20T22:19:36.060Z,0.50
2022-08-20T22:22:03.539Z,0.77
2022-08-20T22:24:30.500Z,0.90
2022-08-20T22:26:57.859Z,0.70
2022-08-20T22:29:24.911Z,0.50
2022-08-20T22:31:51.959Z,0.75
2022-08-20T22:34:20.704Z,0.90
2022-08-20T22:36:49.032Z,1.12
2022-08-20T22:39:16.007Z,0.93
2022-08-20T22:41:43.089Z,0.90
2022-08-20T22:44:10.155Z,1.30
2022-08-20T22:46:43.695Z,0.62
2022-08-20T22:49:17.860Z,0.88
2022-08-20T22:51:45.219Z,0.90
2022-08-20T22:54:19.475Z,1.02
2022-08-20T22:56:46.657Z,0.80
2022-08-20T22:59:13.984Z,0.90
2022-08-20T23:01:44.390Z,1.00
2022-08-20T23:04:28.727Z,1.10
2022-08-20T23:06:57.739Z,1.15
2022-08-20T23:09:25.193Z,0.70
2022-08-20T23:11:52.458Z,0.88
2022-08-20T23:14:19.851Z,0.60
2022-08-20T23:16:51.875Z,0.77
2022-08-20T23:19:23.072Z,0.90
2022-08-20T23:21:51.356Z,0.80
2022-08-20T23:24:18.868Z,1.23
2022-08-20T23:26:52.953Z,1.10
2022-08-20T23:29:25.169Z,1.15
2022-08-20T23:31:54.293Z,1.00
2022-08-20T23:34:21.491Z,0.60
2022-08-20T23:36:49.040Z,1.00
2022-08-20T23:39:15.994Z,0.62
2022-08-20T23:41:47.549Z,0.73
2022-08-20T23:44:26.599Z,0.93
2022-08-20T23:47:00.461Z,0.90
2022-08-20T23:49:28.252Z,0.85
2022-08-20T23:51:55.749Z,0.62
2022-08-20T23:54:22.951Z,0.82
2022-08-20T23:56:50.031Z,0.82
2022-08-20T23:59:17.063Z,0.77
